Time;durP1;ratioP1;P1;durP2;ratioP2;P2;SDS_P1;SDS_P2;PMS_P1;PMS_P2;Temp;Humidity;BMP_temperature;BMP_pressure;BME280_temperature;BME280_humidity;BME280_pressure;Samples;Min_cycle;Max_cycle;Signal;HPM_P1;HPM_P2
2022/11/21 00:02:48;;;;;;;112.97;32.85;;;;;;;;;;6245609;28;20482;-70
2022/11/21 00:05:49;;;;;;;105.30;31.05;;;;;;;;;;6257629;28;20041;-64
2022/11/21 00:08:50;;;;;;;103.22;32.83;;;;;;;;;;6260105;28;20065;-71
2022/11/21 00:11:51;;;;;;;110.22;32.60;;;;;;;;;;6246786;28;20148;-64
2022/11/21 00:14:52;;;;;;;109.50;32.97;;;;;;;;;;6246464;28;20083;-70
2022/11/21 00:17:52;;;;;;;157.85;57.50;;;;;;;;;;6246430;28;20069;-69
2022/11/21 00:20:53;;;;;;;131.90;43.03;;;;;;;;;;6244712;28;20499;-66
2022/11/21 00:23:53;;;;;;;121.72;38.72;;;;;;;;;;6244932;28;20455;-64
2022/11/21 00:26:54;;;;;;;109.35;34.13;;;;;;;;;;6245959;28;20072;-65
2022/11/21 00:29:55;;;;;;;106.15;31.33;;;;;;;;;;6244324;28;20460;-68
2022/11/21 00:32:57;;;;;;;113.75;34.28;;;;;;;;;;6244652;28;20049;-70
2022/11/21 00:35:58;;;;;;;105.15;31.35;;;;;;;;;;6245581;28;20037;-63
2022/11/21 00:38:58;;;;;;;102.78;33.53;;;;;;;;;;6243733;28;20447;-71
2022/11/21 00:41:59;;;;;;;107.88;30.98;;;;;;;;;;6247393;28;20472;-66
2022/11/21 00:44:59;;;;;;;90.88;29.05;;;;;;;;;;6245055;28;20045;-64
2022/11/21 00:48:00;;;;;;;102.32;30.55;;;;;;;;;;6244306;28;20128;-67
2022/11/21 00:51:00;;;;;;;99.22;29.90;;;;;;;;;;6244338;28;20044;-64
2022/11/21 00:54:01;;;;;;;98.65;29.90;;;;;;;;;;6244551;28;20056;-65
2022/11/21 00:57:02;;;;;;;103.55;31.33;;;;;;;;;;6244963;28;20056;-65
2022/11/21 01:00:04;;;;;;;95.60;28.95;;;;;;;;;;6243405;28;20041;-70
2022/11/21 01:03:04;;;;;;;93.22;27.80;;;;;;;;;;6244365;28;20052;-65
2022/11/21 01:06:10;;;;;;;95.00;28.80;;;;;;;;;;6244709;28;20496;-65
2022/11/21 01:09:10;;;;;;;95.30;30.45;;;;;;;;;;6242826;28;20516;-65
2022/11/21 01:12:11;;;;;;;101.20;27.38;;;;;;;;;;6244161;28;20057;-64
2022/11/21 01:15:12;;;;;;;97.25;30.13;;;;;;;;;;6247176;28;20052;-67
2022/11/21 01:18:13;;;;;;;90.70;27.75;;;;;;;;;;6252585;28;20060;-65
2022/11/21 01:21:17;;;;;;;85.13;27.17;;;;;;;;;;6249609;28;20480;-67
2022/11/21 01:24:17;;;;;;;92.90;27.90;;;;;;;;;;6248860;28;20053;-66
2022/11/21 01:27:18;;;;;;;93.05;27.20;;;;;;;;;;6244091;28;20049;-66
2022/11/21 01:30:18;;;;;;;100.50;31.40;;;;;;;;;;6242605;28;20052;-65
2022/11/21 01:33:19;;;;;;;119.47;41.47;;;;;;;;;;6249775;28;20102;-66
2022/11/21 01:36:27;;;;;;;100.85;32.80;;;;;;;;;;6245370;28;20503;-65
2022/11/21 01:39:27;;;;;;;100.20;29.98;;;;;;;;;;6242908;28;20057;-64
2022/11/21 01:42:28;;;;;;;96.57;29.70;;;;;;;;;;6243562;28;20056;-64
2022/11/21 01:45:56;;;;;;;96.15;28.73;;;;;;;;;;6243506;28;20049;-64
2022/11/21 01:49:05;;;;;;;103.22;29.35;;;;;;;;;;6243254;28;20046;-65
2022/11/21 01:52:11;;;;;;;100.68;30.02;;;;;;;;;;6247702;28;20056;-68
2022/11/21 01:55:13;;;;;;;100.20;35.28;;;;;;;;;;6251982;28;20045;-67
2022/11/21 01:58:14;;;;;;;91.25;27.98;;;;;;;;;;6250234;28;20107;-65
2022/11/21 02:01:15;;;;;;;96.13;27.83;;;;;;;;;;6248251;28;20492;-71
2022/11/21 02:04:17;;;;;;;97.35;28.67;;;;;;;;;;6243206;28;20049;-65
2022/11/21 02:07:21;;;;;;;89.27;27.27;;;;;;;;;;6243327;28;20045;-65
2022/11/21 02:10:22;;;;;;;90.60;27.67;;;;;;;;;;6249399;28;20049;-67
2022/11/21 02:13:24;;;;;;;94.03;30.17;;;;;;;;;;6242268;28;20049;-63
2022/11/21 02:16:24;;;;;;;91.78;27.25;;;;;;;;;;6244047;28;20045;-63
2022/11/21 02:19:33;;;;;;;94.18;29.67;;;;;;;;;;6242932;28;20057;-66
2022/11/21 02:23:02;;;;;;;91.43;28.70;;;;;;;;;;6244415;28;20055;-63
2022/11/21 02:26:03;;;;;;;82.53;24.80;;;;;;;;;;6241727;28;20048;-65
2022/11/21 02:29:03;;;;;;;83.22;25.60;;;;;;;;;;6242962;28;20046;-63
2022/11/21 02:32:04;;;;;;;90.20;26.35;;;;;;;;;;6242039;28;20064;-63
2022/11/21 02:35:05;;;;;;;84.13;25.00;;;;;;;;;;6241925;28;20049;-63
2022/11/21 02:38:23;;;;;;;85.63;23.73;;;;;;;;;;6242295;28;20038;-66
2022/11/21 02:41:26;;;;;;;73.95;21.88;;;;;;;;;;6241829;28;20435;-65
2022/11/21 02:44:36;;;;;;;67.35;21.73;;;;;;;;;;6241359;28;20474;-66
2022/11/21 02:47:38;;;;;;;58.42;19.98;;;;;;;;;;6241528;28;20053;-67
2022/11/21 02:50:41;;;;;;;61.45;20.48;;;;;;;;;;6242456;28;20048;-69
2022/11/21 02:53:42;;;;;;;66.63;21.08;;;;;;;;;;6242168;28;20037;-65
2022/11/21 02:56:42;;;;;;;68.22;22.90;;;;;;;;;;6241368;28;20050;-65
2022/11/21 02:59:43;;;;;;;75.18;23.98;;;;;;;;;;6242227;28;20508;-71
2022/11/21 03:02:43;;;;;;;73.32;22.73;;;;;;;;;;6241931;28;20168;-69
2022/11/21 03:05:44;;;;;;;74.78;23.75;;;;;;;;;;6240938;28;20501;-62
2022/11/21 03:08:45;;;;;;;86.07;28.52;;;;;;;;;;6241516;28;20123;-70
2022/11/21 03:11:45;;;;;;;110.38;32.72;;;;;;;;;;6242123;28;20072;-65
2022/11/21 03:14:46;;;;;;;142.82;38.05;;;;;;;;;;6245171;28;20057;-65
2022/11/21 03:17:48;;;;;;;126.82;37.90;;;;;;;;;;6244090;28;20045;-65
2022/11/21 03:20:49;;;;;;;131.93;42.63;;;;;;;;;;6242095;28;20047;-64
2022/11/21 03:23:49;;;;;;;173.52;54.88;;;;;;;;;;6242012;28;20042;-65
2022/11/21 03:26:50;;;;;;;152.18;49.00;;;;;;;;;;6240940;28;20045;-65
2022/11/21 03:29:50;;;;;;;145.10;46.75;;;;;;;;;;6242238;28;20045;-70
2022/11/21 03:32:54;;;;;;;141.43;47.22;;;;;;;;;;6241355;28;20225;-65
2022/11/21 03:35:55;;;;;;;143.10;45.40;;;;;;;;;;6240985;28;20124;-72
2022/11/21 03:38:56;;;;;;;120.85;37.83;;;;;;;;;;6242015;28;20464;-66
2022/11/21 03:41:56;;;;;;;123.88;36.50;;;;;;;;;;6241915;28;20065;-68
2022/11/21 03:44:57;;;;;;;115.15;36.40;;;;;;;;;;6240713;28;20057;-70
2022/11/21 03:47:57;;;;;;;113.93;35.72;;;;;;;;;;6241136;28;20045;-70
2022/11/21 03:50:58;;;;;;;117.95;35.72;;;;;;;;;;6243622;28;20087;-65
2022/11/21 03:53:59;;;;;;;122.97;37.15;;;;;;;;;;6245949;28;20116;-71
2022/11/21 03:56:59;;;;;;;127.10;36.38;;;;;;;;;;6245259;28;20201;-71
2022/11/21 04:00:00;;;;;;;130.30;37.70;;;;;;;;;;6246382;28;20053;-66
2022/11/21 04:03:00;;;;;;;115.28;36.33;;;;;;;;;;6245531;28;20073;-65
2022/11/21 04:06:01;;;;;;;126.20;37.90;;;;;;;;;;6245035;28;20091;-66
2022/11/21 04:09:02;;;;;;;124.88;36.88;;;;;;;;;;6245359;28;20468;-65
2022/11/21 04:12:02;;;;;;;152.05;43.47;;;;;;;;;;6246133;28;20484;-65
2022/11/21 04:15:04;;;;;;;143.00;38.80;;;;;;;;;;6244776;28;20081;-64
2022/11/21 04:18:04;;;;;;;137.20;42.15;;;;;;;;;;6246766;28;20115;-65
2022/11/21 04:21:06;;;;;;;133.13;40.60;;;;;;;;;;6245881;28;20044;-65
2022/11/21 04:24:07;;;;;;;138.32;44.20;;;;;;;;;;6244896;28;20045;-65
2022/11/21 04:27:08;;;;;;;147.80;45.95;;;;;;;;;;6244826;28;20064;-65
2022/11/21 04:30:09;;;;;;;129.18;44.10;;;;;;;;;;6244949;28;20045;-64
2022/11/21 04:33:12;;;;;;;134.43;44.83;;;;;;;;;;6245109;28;20160;-65
2022/11/21 04:36:12;;;;;;;141.05;46.88;;;;;;;;;;6244264;28;20057;-65
2022/11/21 04:39:13;;;;;;;147.05;47.28;;;;;;;;;;6245317;28;20045;-65
2022/11/21 04:42:13;;;;;;;135.60;46.70;;;;;;;;;;6244878;28;20484;-65
2022/11/21 04:45:15;;;;;;;137.75;43.60;;;;;;;;;;6243645;28;20088;-65
2022/11/21 04:48:16;;;;;;;138.17;45.73;;;;;;;;;;6244838;28;20045;-65
2022/11/21 04:51:16;;;;;;;129.80;42.42;;;;;;;;;;6244937;28;20325;-65
2022/11/21 04:54:17;;;;;;;129.63;39.92;;;;;;;;;;6243497;28;20095;-68
2022/11/21 04:57:18;;;;;;;134.50;42.70;;;;;;;;;;6244567;28;20136;-69
2022/11/21 05:00:18;;;;;;;135.05;45.00;;;;;;;;;;6246626;28;20554;-66
2022/11/21 05:03:19;;;;;;;131.63;42.28;;;;;;;;;;6246401;28;20052;-65
2022/11/21 05:06:19;;;;;;;182.50;66.03;;;;;;;;;;6243888;28;20098;-65
2022/11/21 05:09:20;;;;;;;199.23;66.40;;;;;;;;;;6242826;28;20473;-65
2022/11/21 05:15:40;;;;;;;258.92;83.40;;;;;;;;;;6257137;28;20045;-64
2022/11/21 05:18:40;;;;;;;193.85;60.47;;;;;;;;;;6253162;28;20389;-65
2022/11/21 05:21:41;;;;;;;211.02;66.35;;;;;;;;;;6251647;28;20112;-64
2022/11/21 05:24:43;;;;;;;239.73;70.50;;;;;;;;;;6243698;28;20073;-70
2022/11/21 05:27:43;;;;;;;237.20;69.00;;;;;;;;;;6247002;28;20452;-64
2022/11/21 05:30:44;;;;;;;251.30;74.13;;;;;;;;;;6248912;28;20049;-64
2022/11/21 05:33:44;;;;;;;251.43;73.68;;;;;;;;;;6244601;28;20045;-65
2022/11/21 05:36:45;;;;;;;269.73;80.70;;;;;;;;;;6249629;28;20049;-66
2022/11/21 05:39:46;;;;;;;239.60;72.55;;;;;;;;;;6253179;28;20068;-65
2022/11/21 05:46:05;;;;;;;298.33;85.43;;;;;;;;;;6248515;28;20045;-64
2022/11/21 05:49:06;;;;;;;280.67;84.25;;;;;;;;;;6243603;28;20056;-68
2022/11/21 05:52:07;;;;;;;220.50;66.55;;;;;;;;;;6243929;28;20090;-64
2022/11/21 05:55:08;;;;;;;255.52;70.63;;;;;;;;;;6243135;28;20050;-70
2022/11/21 05:58:09;;;;;;;293.73;81.93;;;;;;;;;;6243255;28;20140;-64
2022/11/21 06:01:13;;;;;;;239.15;75.95;;;;;;;;;;6247571;28;20099;-64
2022/11/21 06:04:14;;;;;;;260.23;82.50;;;;;;;;;;6244224;28;20098;-68
2022/11/21 06:07:14;;;;;;;249.07;74.97;;;;;;;;;;6248729;28;20045;-68
2022/11/21 06:10:16;;;;;;;245.68;74.47;;;;;;;;;;6242658;28;20045;-67
2022/11/21 06:13:23;;;;;;;247.50;73.50;;;;;;;;;;6242612;28;20042;-63
2022/11/21 06:16:23;;;;;;;245.13;70.25;;;;;;;;;;6242616;28;20057;-62
2022/11/21 06:19:24;;;;;;;260.17;75.65;;;;;;;;;;6242608;28;20061;-67
2022/11/21 06:22:24;;;;;;;288.58;81.20;;;;;;;;;;6241998;28;20041;-68
2022/11/21 06:25:25;;;;;;;285.55;77.10;;;;;;;;;;6243951;28;20056;-68
2022/11/21 06:28:29;;;;;;;277.10;76.70;;;;;;;;;;6241167;28;20520;-68
2022/11/21 06:31:30;;;;;;;287.90;83.97;;;;;;;;;;6248116;28;20048;-68
2022/11/21 06:34:31;;;;;;;267.38;79.75;;;;;;;;;;6242440;28;20124;-67
2022/11/21 06:37:32;;;;;;;284.58;79.55;;;;;;;;;;6241578;28;20050;-67
2022/11/21 06:40:32;;;;;;;267.38;76.47;;;;;;;;;;6242583;28;20123;-67
2022/11/21 06:43:33;;;;;;;280.92;83.72;;;;;;;;;;6242492;28;20477;-68
2022/11/21 06:46:33;;;;;;;262.33;74.43;;;;;;;;;;6241034;28;20131;-68
2022/11/21 06:49:34;;;;;;;251.57;77.57;;;;;;;;;;6250689;28;20048;-67
2022/11/21 06:52:35;;;;;;;271.20;82.90;;;;;;;;;;6248833;28;20049;-66
2022/11/21 06:55:35;;;;;;;233.75;72.15;;;;;;;;;;6246156;28;20044;-68
2022/11/21 06:58:36;;;;;;;248.70;76.47;;;;;;;;;;6252822;28;20065;-68
2022/11/21 07:01:36;;;;;;;260.13;76.78;;;;;;;;;;6251262;28;20045;-62
2022/11/21 07:04:37;;;;;;;251.18;75.25;;;;;;;;;;6250435;28;20822;-63
2022/11/21 07:07:37;;;;;;;251.77;78.57;;;;;;;;;;6262898;28;20049;-61
2022/11/21 07:10:38;;;;;;;296.65;90.65;;;;;;;;;;6254474;28;20492;-63
2022/11/21 07:13:41;;;;;;;266.52;82.70;;;;;;;;;;6249891;28;20111;-63
2022/11/21 07:16:41;;;;;;;274.08;82.80;;;;;;;;;;6242349;28;20057;-63
2022/11/21 07:19:42;;;;;;;268.88;81.72;;;;;;;;;;6247635;28;20131;-68
2022/11/21 07:22:43;;;;;;;252.75;77.70;;;;;;;;;;6248230;28;20075;-62
2022/11/21 07:25:43;;;;;;;249.35;79.03;;;;;;;;;;6251196;28;20045;-67
2022/11/21 07:28:44;;;;;;;207.15;70.63;;;;;;;;;;6253931;28;20051;-63
2022/11/21 07:31:44;;;;;;;234.43;80.00;;;;;;;;;;6265624;28;20131;-63
2022/11/21 07:34:45;;;;;;;230.05;72.85;;;;;;;;;;6249530;28;20162;-63
2022/11/21 07:37:45;;;;;;;231.02;80.30;;;;;;;;;;6249514;28;20988;-63
2022/11/21 07:40:46;;;;;;;254.68;79.53;;;;;;;;;;6250688;28;20080;-63
2022/11/21 07:43:47;;;;;;;336.88;103.60;;;;;;;;;;6259593;28;20060;-64
2022/11/21 07:46:47;;;;;;;332.25;102.85;;;;;;;;;;6262596;28;20048;-63
2022/11/21 07:49:48;;;;;;;276.35;88.95;;;;;;;;;;6252117;28;20526;-63
2022/11/21 07:52:48;;;;;;;279.63;90.72;;;;;;;;;;6250758;28;20132;-63
2022/11/21 07:55:49;;;;;;;314.05;101.07;;;;;;;;;;6249786;28;20048;-63
2022/11/21 07:58:51;;;;;;;304.85;95.22;;;;;;;;;;6257731;28;20049;-63
2022/11/21 08:01:51;;;;;;;258.50;89.47;;;;;;;;;;6249590;28;20051;-63
2022/11/21 08:04:53;;;;;;;273.55;91.03;;;;;;;;;;6261762;28;20152;-63
2022/11/21 08:07:54;;;;;;;288.33;103.47;;;;;;;;;;6266372;28;20502;-64
2022/11/21 08:10:54;;;;;;;269.92;96.13;;;;;;;;;;6266222;28;20049;-63
2022/11/21 08:13:57;;;;;;;287.08;100.55;;;;;;;;;;6258571;28;20095;-63
2022/11/21 08:16:57;;;;;;;240.27;84.85;;;;;;;;;;6252816;28;20072;-62
2022/11/21 08:19:59;;;;;;;243.35;84.13;;;;;;;;;;6270466;28;20049;-62
2022/11/21 08:23:00;;;;;;;219.02;77.88;;;;;;;;;;6252619;28;20095;-62
2022/11/21 08:26:00;;;;;;;239.35;81.05;;;;;;;;;;6261265;28;20045;-62
2022/11/21 08:29:01;;;;;;;215.45;70.40;;;;;;;;;;6251210;28;20488;-62
2022/11/21 08:32:01;;;;;;;231.93;79.18;;;;;;;;;;6254482;28;20049;-62
2022/11/21 08:35:03;;;;;;;218.23;75.22;;;;;;;;;;6265572;28;20053;-62
2022/11/21 08:38:04;;;;;;;236.75;85.00;;;;;;;;;;6253049;28;20045;-61
2022/11/21 08:44:24;;;;;;;220.30;76.43;;;;;;;;;;6239980;28;20049;-62
2022/11/21 08:47:25;;;;;;;199.07;68.63;;;;;;;;;;6249828;28;20480;-62
2022/11/21 08:50:30;;;;;;;206.15;74.80;;;;;;;;;;6251705;28;20049;-62
2022/11/21 08:53:31;;;;;;;201.50;71.30;;;;;;;;;;6253599;28;20045;-61
2022/11/21 08:56:31;;;;;;;219.73;80.47;;;;;;;;;;6257735;28;20037;-64
2022/11/21 08:59:32;;;;;;;231.77;89.18;;;;;;;;;;6251267;28;20148;-62
2022/11/21 09:02:32;;;;;;;214.85;72.57;;;;;;;;;;6251555;28;20050;-63
2022/11/21 09:05:33;;;;;;;201.45;72.72;;;;;;;;;;6260036;28;20052;-62
2022/11/21 09:08:34;;;;;;;215.30;76.85;;;;;;;;;;6252098;28;20059;-62
2022/11/21 09:11:36;;;;;;;239.55;85.90;;;;;;;;;;6251664;28;20049;-62
2022/11/21 09:18:03;;;;;;;289.65;101.13;;;;;;;;;;6253315;28;20381;-61
2022/11/21 09:21:03;;;;;;;266.20;92.30;;;;;;;;;;6254256;28;20140;-61
2022/11/21 09:24:04;;;;;;;291.33;101.47;;;;;;;;;;6251797;28;20065;-62
2022/11/21 09:27:04;;;;;;;233.32;82.40;;;;;;;;;;6252211;28;20048;-62
2022/11/21 09:30:06;;;;;;;226.60;86.13;;;;;;;;;;6246379;28;20459;-62
2022/11/21 09:33:10;;;;;;;252.85;85.97;;;;;;;;;;6248439;28;20049;-62
2022/11/21 09:36:11;;;;;;;238.18;78.57;;;;;;;;;;6246341;28;20716;-61
2022/11/21 09:39:12;;;;;;;224.05;77.75;;;;;;;;;;6251170;28;20045;-62
2022/11/21 09:42:38;;;;;;;216.15;76.95;;;;;;;;;;6250284;28;20041;-63
2022/11/21 09:45:48;;;;;;;219.18;78.28;;;;;;;;;;6250988;28;20048;-68
2022/11/21 09:49:11;;;;;;;230.52;77.65;;;;;;;;;;6250442;28;20408;-62
2022/11/21 09:52:15;;;;;;;230.50;77.38;;;;;;;;;;6250015;28;20052;-62
2022/11/21 09:55:41;;;;;;;225.98;81.50;;;;;;;;;;6251791;28;20038;-62
2022/11/21 09:58:47;;;;;;;224.85;77.43;;;;;;;;;;6251220;28;20136;-61
2022/11/21 10:01:48;;;;;;;225.38;78.90;;;;;;;;;;6251079;28;20045;-62
2022/11/21 10:04:50;;;;;;;212.05;74.75;;;;;;;;;;6250939;28;20522;-62
2022/11/21 10:07:53;;;;;;;211.23;72.78;;;;;;;;;;6251668;28;20053;-61
2022/11/21 10:10:59;;;;;;;222.90;75.03;;;;;;;;;;6251358;28;20052;-62
2022/11/21 10:14:08;;;;;;;232.35;80.00;;;;;;;;;;6249893;28;20574;-62
2022/11/21 10:17:29;;;;;;;212.98;74.75;;;;;;;;;;6250324;28;20151;-62
2022/11/21 10:20:52;;;;;;;208.10;73.15;;;;;;;;;;6240550;28;20567;-62
2022/11/21 10:24:26;;;;;;;210.38;77.82;;;;;;;;;;6248809;28;20088;-62
2022/11/21 10:27:39;;;;;;;211.05;72.40;;;;;;;;;;6247815;28;20053;-62
2022/11/21 10:30:42;;;;;;;225.88;75.38;;;;;;;;;;6248020;28;20693;-62
2022/11/21 10:33:44;;;;;;;217.20;75.53;;;;;;;;;;6261300;28;20048;-62
2022/11/21 10:36:56;;;;;;;198.50;72.35;;;;;;;;;;6255190;28;20419;-62
2022/11/21 10:40:06;;;;;;;208.77;73.78;;;;;;;;;;6252215;28;20047;-62
2022/11/21 10:47:26;;;;;;;201.43;69.85;;;;;;;;;;6245650;28;20049;-62
2022/11/21 10:50:29;;;;;;;208.32;76.57;;;;;;;;;;6249733;28;20055;-62
2022/11/21 10:56:52;;;;;;;218.65;78.97;;;;;;;;;;6253458;28;20045;-62
2022/11/21 11:00:12;;;;;;;232.07;81.57;;;;;;;;;;6254604;28;20051;-62
2022/11/21 11:03:15;;;;;;;205.02;73.55;;;;;;;;;;6249639;28;20056;-62
2022/11/21 11:06:28;;;;;;;213.45;75.75;;;;;;;;;;6246147;28;20045;-62
2022/11/21 11:09:34;;;;;;;206.98;75.35;;;;;;;;;;6256727;28;20072;-62
2022/11/21 11:16:05;;;;;;;189.02;69.10;;;;;;;;;;6248802;28;20369;-61
2022/11/21 11:19:12;;;;;;;173.68;63.20;;;;;;;;;;6247339;28;20667;-61
2022/11/21 11:22:27;;;;;;;182.05;63.10;;;;;;;;;;6247671;28;22127;-62
2022/11/21 11:25:33;;;;;;;166.77;59.03;;;;;;;;;;6246847;28;20041;-69
2022/11/21 11:28:35;;;;;;;148.18;51.78;;;;;;;;;;6247628;28;20057;-61
2022/11/21 11:31:47;;;;;;;148.15;54.15;;;;;;;;;;6246414;28;20056;-61
2022/11/21 11:35:03;;;;;;;143.67;54.13;;;;;;;;;;6246833;28;20045;-62
2022/11/21 11:38:08;;;;;;;176.20;66.15;;;;;;;;;;6246802;28;20309;-62
2022/11/21 11:41:23;;;;;;;170.43;62.58;;;;;;;;;;6245705;28;20099;-62
2022/11/21 11:48:09;;;;;;;169.93;58.63;;;;;;;;;;6247835;28;20041;-62
2022/11/21 11:51:21;;;;;;;162.23;57.90;;;;;;;;;;6248859;28;20051;-62
2022/11/21 11:54:47;;;;;;;148.73;57.67;;;;;;;;;;6249012;28;20057;-62
2022/11/21 11:57:51;;;;;;;146.85;55.72;;;;;;;;;;6247309;28;20049;-61
2022/11/21 12:00:57;;;;;;;151.20;57.63;;;;;;;;;;6246933;28;20052;-62
2022/11/21 12:04:25;;;;;;;154.02;60.08;;;;;;;;;;6248398;28;20398;-62
2022/11/21 12:07:43;;;;;;;159.77;61.78;;;;;;;;;;6247836;28;20049;-62
2022/11/21 12:18:14;;;;;;;160.95;58.00;;;;;;;;;;6251033;28;20053;-62
2022/11/21 12:21:17;;;;;;;140.52;52.22;;;;;;;;;;6252324;28;20044;-62
2022/11/21 12:24:21;;;;;;;154.73;62.90;;;;;;;;;;6251730;28;20160;-62
2022/11/21 12:27:29;;;;;;;154.13;57.75;;;;;;;;;;6248713;28;20064;-62
2022/11/21 12:30:33;;;;;;;147.10;52.55;;;;;;;;;;6250284;28;20049;-64
2022/11/21 12:33:48;;;;;;;172.05;62.35;;;;;;;;;;6248636;28;20454;-62
2022/11/21 12:37:15;;;;;;;177.35;66.78;;;;;;;;;;6253166;28;20045;-62
2022/11/21 12:40:46;;;;;;;152.60;51.95;;;;;;;;;;6242960;28;20057;-61
2022/11/21 12:44:14;;;;;;;153.32;57.20;;;;;;;;;;6250320;28;20094;-61
2022/11/21 12:47:23;;;;;;;153.32;56.47;;;;;;;;;;6254048;28;20045;-62
2022/11/21 12:57:44;;;;;;;200.02;72.70;;;;;;;;;;6255309;28;20045;-62
2022/11/21 13:01:00;;;;;;;213.80;74.88;;;;;;;;;;6253965;28;20060;-62
2022/11/21 13:04:07;;;;;;;255.52;84.50;;;;;;;;;;6252272;28;20053;-61
2022/11/21 13:07:08;;;;;;;221.65;82.32;;;;;;;;;;6251252;28;20056;-62
2022/11/21 13:10:14;;;;;;;213.98;78.60;;;;;;;;;;6265944;28;20143;-62
2022/11/21 13:13:25;;;;;;;252.45;87.03;;;;;;;;;;6255136;28;20567;-64
2022/11/21 13:16:36;;;;;;;208.20;77.50;;;;;;;;;;6250406;28;20052;-62
2022/11/21 13:19:57;;;;;;;224.45;79.47;;;;;;;;;;6252452;28;20124;-62
2022/11/21 13:23:05;;;;;;;188.88;72.00;;;;;;;;;;6252724;28;20527;-62
2022/11/21 13:26:23;;;;;;;199.07;76.25;;;;;;;;;;6251784;28;20061;-66
2022/11/21 13:29:24;;;;;;;208.32;76.47;;;;;;;;;;6246890;28;20086;-61
2022/11/21 13:32:44;;;;;;;189.95;72.70;;;;;;;;;;6249676;28;20044;-61
2022/11/21 13:35:48;;;;;;;305.83;116.57;;;;;;;;;;6250012;28;20055;-61
2022/11/21 13:38:54;;;;;;;284.35;101.90;;;;;;;;;;6247005;28;20037;-62
2022/11/21 13:45:42;;;;;;;280.88;98.15;;;;;;;;;;6249895;28;20052;-65
2022/11/21 13:48:55;;;;;;;258.27;92.63;;;;;;;;;;6251951;28;20071;-62
2022/11/21 13:51:56;;;;;;;133.10;51.15;;;;;;;;;;6251373;28;20098;-62
2022/11/21 13:55:36;;;;;;;127.63;46.55;;;;;;;;;;6249847;28;20041;-62
2022/11/21 13:58:54;;;;;;;82.10;33.13;;;;;;;;;;6246340;28;20048;-62
2022/11/21 14:02:03;;;;;;;47.00;19.42;;;;;;;;;;6246325;28;20075;-61
2022/11/21 14:05:17;;;;;;;39.28;16.55;;;;;;;;;;6250921;28;20609;-62
2022/11/21 14:08:23;;;;;;;32.88;13.02;;;;;;;;;;6254053;28;20110;-62
2022/11/21 14:11:46;;;;;;;33.38;14.70;;;;;;;;;;6263324;28;20037;-61
2022/11/21 14:15:06;;;;;;;26.92;11.73;;;;;;;;;;6250722;28;20404;-62
2022/11/21 14:18:24;;;;;;;22.25;10.82;;;;;;;;;;6247028;28;20064;-61
2022/11/21 14:21:31;;;;;;;27.02;11.05;;;;;;;;;;6239787;28;20088;-63
2022/11/21 14:24:32;;;;;;;26.73;11.73;;;;;;;;;;6253969;28;20041;-61
2022/11/21 14:27:38;;;;;;;26.35;10.77;;;;;;;;;;6252400;28;21221;-63
2022/11/21 14:30:41;;;;;;;25.70;10.23;;;;;;;;;;6250747;28;20151;-63
2022/11/21 14:33:46;;;;;;;19.77;9.43;;;;;;;;;;6250664;28;20049;-64
2022/11/21 14:36:47;;;;;;;24.23;9.73;;;;;;;;;;6251736;28;20049;-65
2022/11/21 14:39:47;;;;;;;54.67;23.98;;;;;;;;;;6254364;28;20059;-64
2022/11/21 14:42:49;;;;;;;115.22;34.95;;;;;;;;;;6247717;28;20992;-68
2022/11/21 14:45:50;;;;;;;97.85;33.50;;;;;;;;;;6253246;28;20053;-67
2022/11/21 14:48:51;;;;;;;72.07;32.25;;;;;;;;;;6256737;28;20434;-63
2022/11/21 14:52:10;;;;;;;50.92;22.27;;;;;;;;;;6252876;28;20051;-63
2022/11/21 14:55:21;;;;;;;69.78;33.88;;;;;;;;;;6252533;28;20044;-63
2022/11/21 14:58:23;;;;;;;49.03;23.50;;;;;;;;;;6254470;28;20134;-64
2022/11/21 15:01:33;;;;;;;47.53;23.98;;;;;;;;;;6250240;28;20049;-62
2022/11/21 15:04:35;;;;;;;35.30;15.52;;;;;;;;;;6252757;28;20109;-66
2022/11/21 15:07:41;;;;;;;38.22;19.52;;;;;;;;;;6263780;28;20191;-65
2022/11/21 15:10:42;;;;;;;52.78;24.67;;;;;;;;;;6271819;28;20048;-65
2022/11/21 15:13:48;;;;;;;35.25;16.40;;;;;;;;;;6261644;28;20415;-66
2022/11/21 15:16:51;;;;;;;29.70;14.38;;;;;;;;;;6260548;28;20049;-64
2022/11/21 15:20:13;;;;;;;32.10;14.23;;;;;;;;;;6268998;28;20068;-64
2022/11/21 15:23:35;;;;;;;30.25;12.73;;;;;;;;;;6267613;28;20055;-67
2022/11/21 15:26:39;;;;;;;32.10;14.60;;;;;;;;;;6269138;28;20057;-66
2022/11/21 15:29:40;;;;;;;30.73;12.38;;;;;;;;;;6264827;28;20055;-64
2022/11/21 15:33:04;;;;;;;27.17;12.05;;;;;;;;;;6263462;28;20049;-67
2022/11/21 15:36:12;;;;;;;26.02;10.95;;;;;;;;;;6260559;28;20055;-65
2022/11/21 15:39:20;;;;;;;23.92;10.35;;;;;;;;;;6264839;28;20613;-64
2022/11/21 15:42:30;;;;;;;25.58;9.82;;;;;;;;;;6262880;28;20056;-63
2022/11/21 15:45:30;;;;;;;24.27;10.40;;;;;;;;;;6267779;28;20076;-63
2022/11/21 15:48:31;;;;;;;30.88;14.50;;;;;;;;;;6275569;28;20072;-64
2022/11/21 15:51:34;;;;;;;31.05;13.82;;;;;;;;;;6249291;28;20491;-65
2022/11/21 15:54:35;;;;;;;52.75;22.58;;;;;;;;;;6271768;28;20048;-63
2022/11/21 15:57:35;;;;;;;31.25;15.60;;;;;;;;;;6264158;28;20052;-68
2022/11/21 16:00:36;;;;;;;80.43;42.95;;;;;;;;;;6267351;28;20056;-70
2022/11/21 16:03:36;;;;;;;43.75;22.08;;;;;;;;;;6263283;28;20060;-68
2022/11/21 16:06:37;;;;;;;42.08;17.67;;;;;;;;;;6273494;28;20048;-71
2022/11/21 16:09:38;;;;;;;62.67;22.70;;;;;;;;;;6273885;28;20053;-72
2022/11/21 16:12:38;;;;;;;72.00;24.50;;;;;;;;;;6269765;28;20049;-71
2022/11/21 16:15:39;;;;;;;70.32;22.85;;;;;;;;;;6271627;28;20056;-69
2022/11/21 16:18:40;;;;;;;65.38;21.90;;;;;;;;;;6266014;28;20068;-71
2022/11/21 16:21:41;;;;;;;57.50;23.55;;;;;;;;;;6273314;28;20056;-68
2022/11/21 16:24:41;;;;;;;50.33;19.42;;;;;;;;;;6274480;28;20478;-69
2022/11/21 16:27:42;;;;;;;43.80;16.73;;;;;;;;;;6267398;28;20044;-67
2022/11/21 16:30:43;;;;;;;42.97;17.67;;;;;;;;;;6266449;28;20052;-66
2022/11/21 16:33:43;;;;;;;50.70;20.38;;;;;;;;;;6262272;28;20056;-67
2022/11/21 16:36:44;;;;;;;51.95;23.60;;;;;;;;;;6263920;28;20110;-68
2022/11/21 16:39:50;;;;;;;44.45;17.65;;;;;;;;;;6266817;28;20072;-68
2022/11/21 16:42:53;;;;;;;37.80;16.98;;;;;;;;;;6266141;28;20850;-63
2022/11/21 16:45:54;;;;;;;51.58;19.20;;;;;;;;;;6273285;28;20063;-65
2022/11/21 16:49:00;;;;;;;46.50;21.52;;;;;;;;;;6266213;28;20049;-61
2022/11/21 16:52:01;;;;;;;67.57;29.83;;;;;;;;;;6258178;28;20059;-64
2022/11/21 16:55:03;;;;;;;78.85;33.97;;;;;;;;;;6259940;28;20033;-65
2022/11/21 16:58:03;;;;;;;65.78;28.52;;;;;;;;;;6260486;28;20401;-63
2022/11/21 17:01:16;;;;;;;69.13;26.90;;;;;;;;;;6262286;28;20412;-64
2022/11/21 17:04:17;;;;;;;69.18;28.23;;;;;;;;;;6261913;28;20071;-62
2022/11/21 17:07:18;;;;;;;193.63;81.28;;;;;;;;;;6268368;28;20506;-62
2022/11/21 17:10:18;;;;;;;136.65;54.35;;;;;;;;;;6270486;28;20049;-63
2022/11/21 17:13:19;;;;;;;122.03;53.88;;;;;;;;;;6269881;28;20052;-63
2022/11/21 17:16:21;;;;;;;105.45;42.45;;;;;;;;;;6268071;28;20052;-61
2022/11/21 17:19:22;;;;;;;102.53;41.17;;;;;;;;;;6265889;28;20067;-64
2022/11/21 17:22:24;;;;;;;98.93;42.22;;;;;;;;;;6270892;28;20052;-66
2022/11/21 17:25:25;;;;;;;80.93;34.83;;;;;;;;;;6266549;28;20052;-66
2022/11/21 17:28:25;;;;;;;76.18;32.95;;;;;;;;;;6267250;28;20122;-63
2022/11/21 17:31:27;;;;;;;88.72;37.42;;;;;;;;;;6260785;28;20162;-65
2022/11/21 17:34:27;;;;;;;65.82;26.60;;;;;;;;;;6268087;28;20088;-64
2022/11/21 17:37:28;;;;;;;79.38;32.50;;;;;;;;;;6267518;28;20059;-63
2022/11/21 17:40:28;;;;;;;65.75;26.08;;;;;;;;;;6268487;28;20056;-62
2022/11/21 17:43:29;;;;;;;89.00;33.45;;;;;;;;;;6272499;28;20052;-66
2022/11/21 17:46:30;;;;;;;86.88;34.92;;;;;;;;;;6267807;28;20075;-63
2022/11/21 17:49:35;;;;;;;73.20;29.70;;;;;;;;;;6271781;28;20040;-63
2022/11/21 17:52:37;;;;;;;72.82;28.13;;;;;;;;;;6265791;28;20103;-61
2022/11/21 17:55:38;;;;;;;85.65;33.40;;;;;;;;;;6265046;28;20059;-62
2022/11/21 17:58:39;;;;;;;66.53;27.70;;;;;;;;;;6272934;28;20048;-67
2022/11/21 18:01:40;;;;;;;76.25;27.63;;;;;;;;;;6264418;28;20053;-63
2022/11/21 18:04:40;;;;;;;68.15;25.90;;;;;;;;;;6270893;28;20041;-72
2022/11/21 18:07:41;;;;;;;60.13;24.02;;;;;;;;;;6272599;28;20495;-64
2022/11/21 18:10:41;;;;;;;76.85;28.00;;;;;;;;;;6264446;28;20129;-63
2022/11/21 18:13:42;;;;;;;109.45;42.00;;;;;;;;;;6268362;28;20047;-64
2022/11/21 18:16:43;;;;;;;103.75;46.97;;;;;;;;;;6271590;28;20055;-60
2022/11/21 18:19:44;;;;;;;105.03;43.58;;;;;;;;;;6272453;28;20048;-61
2022/11/21 18:22:44;;;;;;;125.88;50.85;;;;;;;;;;6263442;28;20053;-62
2022/11/21 18:25:45;;;;;;;101.93;37.95;;;;;;;;;;6269370;28;20111;-67
2022/11/21 18:28:47;;;;;;;242.70;73.97;;;;;;;;;;6272578;28;20419;-61